Αρχική σελίδα
METAR-TAF:

METAR-TAF

Αεροδρόμια :

Redding Municipal Airport

Redding, Καλιφόρνια, Ηνωμένες Πολιτείες Αμερικής

γεωγραφικό πλάτος: 40-30-54N, γεωγραφικό μήκος: 122-17-48W, υψόμετρο: 153 μ

Παρών καιρός

Η αναφορά έγινε 52 λεπτά πριν, στις 10:53 UTC
Ήπιος άνεμος
Θερμοκρασία 13°C
Υγρασία 51%
Πίεση 1011 hPa
Ορατότητα: 16.1 χλμ
Καθαρός ουρανός

METAR: KRDD 191053Z AUTO 00000KT 10SM CLR 13/03 A2986 RMK AO2 SLP108 T01280033

Χρόνος: 04:45 (11:45 UTC)

Πρόγνωση Καιρού

Η αναφορά έγινε 22 λεπτά πριν, στις 11:23 UTC
Η πρόγνωση ισχύει από τις 19 στις 12 UTC έως τις 20 στις 12 UTC
Άνεμος 4 kt από Β/BΔ
Ορατότητα: 10 χλμ
Καθαρός ουρανός
Από 19 στις 1700 UTC
Άνεμος 10 kt από Β
Ορατότητα: 8.0 χλμ
Καθαρός ουρανός
καταχνιά, καπνός

TAF: KRDD 191123Z 1912/2012 34004KT P6SM SKC FM191700 35010KT 5SM HZ FU SKC

Μετεωρολογικές αναφορές και προγνώσεις για περισσότερα από 4000 αεροδρόμια (δελτία METAR και TAF).

Οι διαθέσιμοι σταθμοί απεικονίζονται στο χάρτη με κίτρινες και κόκκινες κουκκίδες.

Μετακινήστε το ποντίκι πάνω από τις κουκκίδες για να δείτε το όνομα του σταθμού.

Στη συνέχεια, κάντε κλικ για να δείτε τις μετεωρολογικές αναφορές και τις προγνώσεις καιρού.

Για να αλλάξετε το χάρτη: κάντε κλικ στα πράσινα κουμπιά με τον μαύρο σταυρό για να ζουμάρετε, στο πράσινο κουμπί με την παύλα για να αφαιρέσετε το ζουμ ή στα πράσινα βέλη για να αντιπαραβάλλετε χάρτες.


METAR-TAF: